sensor_id;sensor_type;location;lat;lon;timestamp;temperature;humidity
15615;DHT22;7907;51.368;6.730;2023-02-28T00:00:51;2.20;99.90
15615;DHT22;7907;51.368;6.730;2023-02-28T00:03:19;2.20;99.90
15615;DHT22;7907;51.368;6.730;2023-02-28T00:05:46;2.20;99.90
15615;DHT22;7907;51.368;6.730;2023-02-28T00:08:15;2.10;99.90
15615;DHT22;7907;51.368;6.730;2023-02-28T00:10:42;2.10;99.90
15615;DHT22;7907;51.368;6.730;2023-02-28T00:13:10;2.10;99.90
15615;DHT22;7907;51.368;6.730;2023-02-28T00:15:37;2.10;99.90
15615;DHT22;7907;51.368;6.730;2023-02-28T00:18:05;2.10;99.90
15615;DHT22;7907;51.368;6.730;2023-02-28T00:20:32;2.10;99.90
15615;DHT22;7907;51.368;6.730;2023-02-28T00:22:59;2.10;99.90
15615;DHT22;7907;51.368;6.730;2023-02-28T00:25:27;2.00;99.90
15615;DHT22;7907;51.368;6.730;2023-02-28T00:27:55;2.00;99.90
15615;DHT22;7907;51.368;6.730;2023-02-28T00:30:23;2.00;99.90
15615;DHT22;7907;51.368;6.730;2023-02-28T00:32:50;2.00;99.90
15615;DHT22;7907;51.368;6.730;2023-02-28T00:35:18;2.00;99.90
15615;DHT22;7907;51.368;6.730;2023-02-28T00:37:45;2.00;99.90
15615;DHT22;7907;51.368;6.730;2023-02-28T00:40:12;2.00;99.90
15615;DHT22;7907;51.368;6.730;2023-02-28T00:42:41;2.00;99.90
15615;DHT22;7907;51.368;6.730;2023-02-28T00:45:09;2.00;99.90
15615;DHT22;7907;51.368;6.730;2023-02-28T00:47:36;2.00;99.90
15615;DHT22;7907;51.368;6.730;2023-02-28T00:50:04;1.90;99.90
15615;DHT22;7907;51.368;6.730;2023-02-28T00:52:31;1.90;99.90
15615;DHT22;7907;51.368;6.730;2023-02-28T00:54:58;1.90;99.90
15615;DHT22;7907;51.368;6.730;2023-02-28T00:57:26;1.80;99.90
15615;DHT22;7907;51.368;6.730;2023-02-28T00:59:55;1.80;99.90
15615;DHT22;7907;51.368;6.730;2023-02-28T01:02:22;1.90;99.90
15615;DHT22;7907;51.368;6.730;2023-02-28T01:04:49;1.80;99.90
15615;DHT22;7907;51.368;6.730;2023-02-28T01:07:17;1.70;99.90
15615;DHT22;7907;51.368;6.730;2023-02-28T01:09:44;1.70;99.90
15615;DHT22;7907;51.368;6.730;2023-02-28T01:12:12;1.70;99.90
15615;DHT22;7907;51.368;6.730;2023-02-28T01:14:39;1.70;99.90
15615;DHT22;7907;51.368;6.730;2023-02-28T01:17:08;1.70;99.90
15615;DHT22;7907;51.368;6.730;2023-02-28T01:19:36;1.70;99.90
15615;DHT22;7907;51.368;6.730;2023-02-28T01:22:03;1.70;99.90
15615;DHT22;7907;51.368;6.730;2023-02-28T01:24:31;1.60;99.90
15615;DHT22;7907;51.368;6.730;2023-02-28T01:26:59;1.60;99.90
15615;DHT22;7907;51.368;6.730;2023-02-28T01:29:26;1.60;99.90
15615;DHT22;7907;51.368;6.730;2023-02-28T01:31:53;1.60;99.90
15615;DHT22;7907;51.368;6.730;2023-02-28T01:34:21;1.60;99.90
15615;DHT22;7907;51.368;6.730;2023-02-28T01:36:48;1.60;99.90
15615;DHT22;7907;51.368;6.730;2023-02-28T01:39:16;1.60;99.90
15615;DHT22;7907;51.368;6.730;2023-02-28T01:41:43;1.60;99.90
15615;DHT22;7907;51.368;6.730;2023-02-28T01:47:15;1.50;99.90
15615;DHT22;7907;51.368;6.730;2023-02-28T01:49:44;1.50;99.90
15615;DHT22;7907;51.368;6.730;2023-02-28T01:52:12;1.40;99.90
15615;DHT22;7907;51.368;6.730;2023-02-28T01:54:44;1.50;99.90
15615;DHT22;7907;51.368;6.730;2023-02-28T01:57:15;1.50;99.90
15615;DHT22;7907;51.368;6.730;2023-02-28T01:59:49;1.50;99.90
15615;DHT22;7907;51.368;6.730;2023-02-28T02:02:19;1.40;99.90
15615;DHT22;7907;51.368;6.730;2023-02-28T02:04:53;1.40;99.90
15615;DHT22;7907;51.368;6.730;2023-02-28T02:07:23;1.40;99.90
15615;DHT22;7907;51.368;6.730;2023-02-28T02:10:00;1.40;99.90
15615;DHT22;7907;51.368;6.730;2023-02-28T02:12:39;1.40;99.90
15615;DHT22;7907;51.368;6.730;2023-02-28T02:15:13;1.40;99.90
15615;DHT22;7907;51.368;6.730;2023-02-28T02:17:45;1.40;99.90
15615;DHT22;7907;51.368;6.730;2023-02-28T02:23:43;1.30;99.90
15615;DHT22;7907;51.368;6.730;2023-02-28T02:26:36;1.30;99.90
15615;DHT22;7907;51.368;6.730;2023-02-28T02:29:43;1.30;99.90
15615;DHT22;7907;51.368;6.730;2023-02-28T02:32:47;1.30;99.90
15615;DHT22;7907;51.368;6.730;2023-02-28T02:35:23;1.30;99.90
15615;DHT22;7907;51.368;6.730;2023-02-28T02:37:58;1.20;99.90
15615;DHT22;7907;51.368;6.730;2023-02-28T02:40:32;1.20;99.90
15615;DHT22;7907;51.368;6.730;2023-02-28T02:43:08;1.20;99.90
15615;DHT22;7907;51.368;6.730;2023-02-28T02:45:39;1.20;99.90
15615;DHT22;7907;51.368;6.730;2023-02-28T02:48:09;1.20;99.90
15615;DHT22;7907;51.368;6.730;2023-02-28T02:50:43;1.20;99.90
15615;DHT22;7907;51.368;6.730;2023-02-28T02:53:12;1.20;99.90
15615;DHT22;7907;51.368;6.730;2023-02-28T02:55:46;1.10;99.90
15615;DHT22;7907;51.368;6.730;2023-02-28T02:58:21;1.10;99.90
15615;DHT22;7907;51.368;6.730;2023-02-28T03:00:51;1.10;99.90
15615;DHT22;7907;51.368;6.730;2023-02-28T03:03:20;1.00;99.90
15615;DHT22;7907;51.368;6.730;2023-02-28T03:05:56;1.10;99.90
15615;DHT22;7907;51.368;6.730;2023-02-28T03:08:26;1.00;99.90
15615;DHT22;7907;51.368;6.730;2023-02-28T03:10:58;1.00;99.90
15615;DHT22;7907;51.368;6.730;2023-02-28T03:16:38;0.90;99.90
15615;DHT22;7907;51.368;6.730;2023-02-28T03:22:21;0.90;99.90
15615;DHT22;7907;51.368;6.730;2023-02-28T03:24:56;0.90;99.90
15615;DHT22;7907;51.368;6.730;2023-02-28T03:27:29;0.80;99.90
15615;DHT22;7907;51.368;6.730;2023-02-28T03:30:00;0.90;99.90
15615;DHT22;7907;51.368;6.730;2023-02-28T03:32:33;0.80;99.90
15615;DHT22;7907;51.368;6.730;2023-02-28T03:35:06;0.80;99.90
15615;DHT22;7907;51.368;6.730;2023-02-28T03:37:40;0.80;99.90
15615;DHT22;7907;51.368;6.730;2023-02-28T03:40:10;0.80;99.90
15615;DHT22;7907;51.368;6.730;2023-02-28T03:42:42;0.80;99.90
15615;DHT22;7907;51.368;6.730;2023-02-28T03:45:13;0.80;99.90
15615;DHT22;7907;51.368;6.730;2023-02-28T03:47:45;0.70;99.90
15615;DHT22;7907;51.368;6.730;2023-02-28T03:50:16;0.70;99.90
15615;DHT22;7907;51.368;6.730;2023-02-28T03:52:48;0.70;99.90
15615;DHT22;7907;51.368;6.730;2023-02-28T03:55:18;0.70;99.90
15615;DHT22;7907;51.368;6.730;2023-02-28T03:57:53;0.70;99.90
15615;DHT22;7907;51.368;6.730;2023-02-28T04:00:33;0.70;99.90
15615;DHT22;7907;51.368;6.730;2023-02-28T04:03:01;0.70;99.90
15615;DHT22;7907;51.368;6.730;2023-02-28T04:05:29;0.70;99.90
15615;DHT22;7907;51.368;6.730;2023-02-28T04:08:06;0.60;99.90
15615;DHT22;7907;51.368;6.730;2023-02-28T04:10:33;0.60;99.90
15615;DHT22;7907;51.368;6.730;2023-02-28T04:13:00;0.60;99.90
15615;DHT22;7907;51.368;6.730;2023-02-28T04:15:27;0.60;99.90
15615;DHT22;7907;51.368;6.730;2023-02-28T04:17:54;0.60;99.90
15615;DHT22;7907;51.368;6.730;2023-02-28T04:20:21;0.60;99.90
15615;DHT22;7907;51.368;6.730;2023-02-28T04:22:48;0.60;99.90
15615;DHT22;7907;51.368;6.730;2023-02-28T04:25:17;0.60;99.90
15615;DHT22;7907;51.368;6.730;2023-02-28T04:27:44;0.60;99.90
15615;DHT22;7907;51.368;6.730;2023-02-28T04:30:12;0.60;99.90
15615;DHT22;7907;51.368;6.730;2023-02-28T04:32:39;0.50;99.90
15615;DHT22;7907;51.368;6.730;2023-02-28T04:35:07;0.50;99.90
15615;DHT22;7907;51.368;6.730;2023-02-28T04:37:34;0.50;99.90
15615;DHT22;7907;51.368;6.730;2023-02-28T04:40:03;0.50;99.90
15615;DHT22;7907;51.368;6.730;2023-02-28T04:42:32;0.50;99.90
15615;DHT22;7907;51.368;6.730;2023-02-28T04:45:01;0.50;99.90
15615;DHT22;7907;51.368;6.730;2023-02-28T04:47:29;0.50;99.90
15615;DHT22;7907;51.368;6.730;2023-02-28T04:49:56;0.40;99.90
15615;DHT22;7907;51.368;6.730;2023-02-28T04:52:24;0.40;99.90
15615;DHT22;7907;51.368;6.730;2023-02-28T04:54:51;0.40;99.90
15615;DHT22;7907;51.368;6.730;2023-02-28T04:57:18;0.40;99.90
15615;DHT22;7907;51.368;6.730;2023-02-28T04:59:47;0.40;99.90
15615;DHT22;7907;51.368;6.730;2023-02-28T05:02:14;0.40;99.90
15615;DHT22;7907;51.368;6.730;2023-02-28T05:04:41;0.40;99.90
15615;DHT22;7907;51.368;6.730;2023-02-28T05:07:08;0.40;99.90
15615;DHT22;7907;51.368;6.730;2023-02-28T05:09:37;0.40;99.90
15615;DHT22;7907;51.368;6.730;2023-02-28T05:12:05;0.40;99.90
15615;DHT22;7907;51.368;6.730;2023-02-28T05:14:33;0.40;99.90
15615;DHT22;7907;51.368;6.730;2023-02-28T05:17:03;0.30;99.90
15615;DHT22;7907;51.368;6.730;2023-02-28T05:19:30;0.40;99.90
15615;DHT22;7907;51.368;6.730;2023-02-28T05:21:58;0.30;99.90
15615;DHT22;7907;51.368;6.730;2023-02-28T05:24:25;0.30;99.90
15615;DHT22;7907;51.368;6.730;2023-02-28T05:26:54;0.30;99.90
15615;DHT22;7907;51.368;6.730;2023-02-28T05:29:21;0.40;99.90
15615;DHT22;7907;51.368;6.730;2023-02-28T05:31:49;0.30;99.90
15615;DHT22;7907;51.368;6.730;2023-02-28T05:34:18;0.30;99.90
15615;DHT22;7907;51.368;6.730;2023-02-28T05:36:46;0.30;99.90
15615;DHT22;7907;51.368;6.730;2023-02-28T05:39:13;0.20;99.90
15615;DHT22;7907;51.368;6.730;2023-02-28T05:41:41;0.20;99.90
15615;DHT22;7907;51.368;6.730;2023-02-28T05:44:08;0.20;99.90
15615;DHT22;7907;51.368;6.730;2023-02-28T05:46:36;0.20;99.90
15615;DHT22;7907;51.368;6.730;2023-02-28T05:49:04;0.20;99.90
15615;DHT22;7907;51.368;6.730;2023-02-28T05:51:34;0.20;99.90
15615;DHT22;7907;51.368;6.730;2023-02-28T05:54:05;0.20;99.90
15615;DHT22;7907;51.368;6.730;2023-02-28T05:56:33;0.20;99.90
15615;DHT22;7907;51.368;6.730;2023-02-28T05:59:01;0.20;99.90
15615;DHT22;7907;51.368;6.730;2023-02-28T06:01:33;0.20;99.90
15615;DHT22;7907;51.368;6.730;2023-02-28T06:04:01;0.20;99.90
15615;DHT22;7907;51.368;6.730;2023-02-28T06:06:30;0.20;99.90
15615;DHT22;7907;51.368;6.730;2023-02-28T06:09:02;0.20;99.90
15615;DHT22;7907;51.368;6.730;2023-02-28T06:11:32;0.20;99.90
15615;DHT22;7907;51.368;6.730;2023-02-28T06:14:03;0.20;99.90
15615;DHT22;7907;51.368;6.730;2023-02-28T06:16:32;0.10;99.90
15615;DHT22;7907;51.368;6.730;2023-02-28T06:19:02;0.10;99.90
15615;DHT22;7907;51.368;6.730;2023-02-28T06:21:34;0.10;99.90
15615;DHT22;7907;51.368;6.730;2023-02-28T06:24:10;0.20;99.90
15615;DHT22;7907;51.368;6.730;2023-02-28T06:26:46;0.10;99.90
15615;DHT22;7907;51.368;6.730;2023-02-28T06:29:14;0.10;99.90
15615;DHT22;7907;51.368;6.730;2023-02-28T06:31:44;0.20;99.90
15615;DHT22;7907;51.368;6.730;2023-02-28T06:34:18;0.20;99.90
15615;DHT22;7907;51.368;6.730;2023-02-28T06:36:52;0.10;99.90
15615;DHT22;7907;51.368;6.730;2023-02-28T06:39:24;0.20;99.90
15615;DHT22;7907;51.368;6.730;2023-02-28T06:41:57;0.10;99.90
15615;DHT22;7907;51.368;6.730;2023-02-28T06:44:39;0.20;99.90
15615;DHT22;7907;51.368;6.730;2023-02-28T06:47:06;0.20;99.90
15615;DHT22;7907;51.368;6.730;2023-02-28T06:49:39;0.20;99.90
15615;DHT22;7907;51.368;6.730;2023-02-28T06:52:07;0.20;99.90
15615;DHT22;7907;51.368;6.730;2023-02-28T06:54:48;0.20;99.90
15615;DHT22;7907;51.368;6.730;2023-02-28T06:57:28;0.20;99.90
15615;DHT22;7907;51.368;6.730;2023-02-28T07:03:46;0.30;99.90
15615;DHT22;7907;51.368;6.730;2023-02-28T07:06:51;0.30;99.90
15615;DHT22;7907;51.368;6.730;2023-02-28T07:12:40;0.40;99.90
15615;DHT22;7907;51.368;6.730;2023-02-28T07:15:10;0.40;99.90
15615;DHT22;7907;51.368;6.730;2023-02-28T07:17:51;0.50;99.90
15615;DHT22;7907;51.368;6.730;2023-02-28T07:20:32;0.50;99.90
15615;DHT22;7907;51.368;6.730;2023-02-28T07:23:01;0.60;99.90
15615;DHT22;7907;51.368;6.730;2023-02-28T07:25:33;0.60;99.90
15615;DHT22;7907;51.368;6.730;2023-02-28T07:28:02;0.70;99.90
15615;DHT22;7907;51.368;6.730;2023-02-28T07:30:30;0.70;99.90
15615;DHT22;7907;51.368;6.730;2023-02-28T07:32:58;0.80;99.90
15615;DHT22;7907;51.368;6.730;2023-02-28T07:35:29;0.70;99.90
15615;DHT22;7907;51.368;6.730;2023-02-28T07:38:00;0.90;99.90
15615;DHT22;7907;51.368;6.730;2023-02-28T07:40:29;0.90;99.90
15615;DHT22;7907;51.368;6.730;2023-02-28T07:42:56;1.00;99.90
15615;DHT22;7907;51.368;6.730;2023-02-28T07:45:28;1.00;99.90
15615;DHT22;7907;51.368;6.730;2023-02-28T07:48:00;1.10;99.90
15615;DHT22;7907;51.368;6.730;2023-02-28T07:50:28;1.10;99.90
15615;DHT22;7907;51.368;6.730;2023-02-28T07:52:57;1.20;99.90
15615;DHT22;7907;51.368;6.730;2023-02-28T07:55:24;1.30;99.90
15615;DHT22;7907;51.368;6.730;2023-02-28T07:57:52;1.30;99.90
15615;DHT22;7907;51.368;6.730;2023-02-28T08:00:20;1.40;99.90
15615;DHT22;7907;51.368;6.730;2023-02-28T08:02:49;1.40;99.90
15615;DHT22;7907;51.368;6.730;2023-02-28T08:05:17;1.50;99.90
15615;DHT22;7907;51.368;6.730;2023-02-28T08:07:44;1.60;99.90
15615;DHT22;7907;51.368;6.730;2023-02-28T08:10:13;1.60;99.90
15615;DHT22;7907;51.368;6.730;2023-02-28T08:12:40;1.70;99.90
15615;DHT22;7907;51.368;6.730;2023-02-28T08:15:08;1.80;99.90
15615;DHT22;7907;51.368;6.730;2023-02-28T08:17:36;1.80;99.90
15615;DHT22;7907;51.368;6.730;2023-02-28T08:20:07;1.90;99.90
15615;DHT22;7907;51.368;6.730;2023-02-28T08:22:36;2.00;99.90
15615;DHT22;7907;51.368;6.730;2023-02-28T08:25:04;2.00;99.90
15615;DHT22;7907;51.368;6.730;2023-02-28T08:27:32;2.10;99.90
15615;DHT22;7907;51.368;6.730;2023-02-28T08:30:00;2.20;99.90
15615;DHT22;7907;51.368;6.730;2023-02-28T08:32:32;2.30;99.90
15615;DHT22;7907;51.368;6.730;2023-02-28T08:34:59;2.40;99.90
15615;DHT22;7907;51.368;6.730;2023-02-28T08:37:30;2.40;99.90
15615;DHT22;7907;51.368;6.730;2023-02-28T08:39:58;2.60;99.90
15615;DHT22;7907;51.368;6.730;2023-02-28T08:42:25;2.60;99.90
15615;DHT22;7907;51.368;6.730;2023-02-28T08:44:52;2.70;99.90
15615;DHT22;7907;51.368;6.730;2023-02-28T08:47:19;2.70;99.90
15615;DHT22;7907;51.368;6.730;2023-02-28T08:49:47;2.90;99.90
15615;DHT22;7907;51.368;6.730;2023-02-28T08:52:14;2.90;99.90
15615;DHT22;7907;51.368;6.730;2023-02-28T08:54:43;3.00;99.90
15615;DHT22;7907;51.368;6.730;2023-02-28T08:57:11;3.10;99.90
15615;DHT22;7907;51.368;6.730;2023-02-28T08:59:39;3.10;99.70
15615;DHT22;7907;51.368;6.730;2023-02-28T09:02:07;3.10;97.20
15615;DHT22;7907;51.368;6.730;2023-02-28T09:04:35;3.20;97.20
15615;DHT22;7907;51.368;6.730;2023-02-28T09:07:02;3.30;96.80
15615;DHT22;7907;51.368;6.730;2023-02-28T09:09:29;3.40;97.00
15615;DHT22;7907;51.368;6.730;2023-02-28T09:11:59;3.40;97.20
15615;DHT22;7907;51.368;6.730;2023-02-28T09:14:26;3.50;97.40
15615;DHT22;7907;51.368;6.730;2023-02-28T09:16:54;3.60;96.50
15615;DHT22;7907;51.368;6.730;2023-02-28T09:19:21;3.70;95.70
15615;DHT22;7907;51.368;6.730;2023-02-28T09:21:52;3.80;95.60
15615;DHT22;7907;51.368;6.730;2023-02-28T09:24:35;3.80;95.20
15615;DHT22;7907;51.368;6.730;2023-02-28T09:27:05;3.90;95.00
15615;DHT22;7907;51.368;6.730;2023-02-28T09:29:33;4.00;94.60
15615;DHT22;7907;51.368;6.730;2023-02-28T09:32:01;4.10;93.40
15615;DHT22;7907;51.368;6.730;2023-02-28T09:34:31;4.10;92.10
15615;DHT22;7907;51.368;6.730;2023-02-28T09:36:58;4.20;91.40
15615;DHT22;7907;51.368;6.730;2023-02-28T09:39:41;4.30;91.10
15615;DHT22;7907;51.368;6.730;2023-02-28T09:42:20;4.40;91.40
15615;DHT22;7907;51.368;6.730;2023-02-28T09:44:49;4.50;90.90
15615;DHT22;7907;51.368;6.730;2023-02-28T09:47:25;4.50;89.80
15615;DHT22;7907;51.368;6.730;2023-02-28T09:49:54;4.60;88.70
15615;DHT22;7907;51.368;6.730;2023-02-28T09:52:27;4.70;88.70
15615;DHT22;7907;51.368;6.730;2023-02-28T09:54:56;4.70;86.10
15615;DHT22;7907;51.368;6.730;2023-02-28T10:00:10;4.80;86.30
15615;DHT22;7907;51.368;6.730;2023-02-28T10:02:54;4.90;85.40
15615;DHT22;7907;51.368;6.730;2023-02-28T10:05:32;4.90;85.70
15615;DHT22;7907;51.368;6.730;2023-02-28T10:08:05;4.90;83.50
15615;DHT22;7907;51.368;6.730;2023-02-28T10:10:38;4.90;83.30
15615;DHT22;7907;51.368;6.730;2023-02-28T10:13:15;4.90;81.90
15615;DHT22;7907;51.368;6.730;2023-02-28T10:15:48;5.00;83.10
15615;DHT22;7907;51.368;6.730;2023-02-28T10:18:23;5.10;82.00
15615;DHT22;7907;51.368;6.730;2023-02-28T10:20:57;5.20;82.20
15615;DHT22;7907;51.368;6.730;2023-02-28T10:23:35;5.30;82.80
15615;DHT22;7907;51.368;6.730;2023-02-28T10:26:09;5.40;81.10
15615;DHT22;7907;51.368;6.730;2023-02-28T10:28:38;5.50;77.70
15615;DHT22;7907;51.368;6.730;2023-02-28T10:31:13;5.60;79.00
15615;DHT22;7907;51.368;6.730;2023-02-28T10:33:42;5.60;78.10
15615;DHT22;7907;51.368;6.730;2023-02-28T10:36:13;5.80;75.70
15615;DHT22;7907;51.368;6.730;2023-02-28T10:38:43;5.90;76.00
15615;DHT22;7907;51.368;6.730;2023-02-28T10:41:13;6.00;72.90
15615;DHT22;7907;51.368;6.730;2023-02-28T10:43:41;6.20;74.50
15615;DHT22;7907;51.368;6.730;2023-02-28T10:46:15;6.40;71.40
15615;DHT22;7907;51.368;6.730;2023-02-28T10:49:01;6.60;70.70
15615;DHT22;7907;51.368;6.730;2023-02-28T10:51:35;6.70;71.20
15615;DHT22;7907;51.368;6.730;2023-02-28T10:54:04;6.90;66.90
15615;DHT22;7907;51.368;6.730;2023-02-28T10:56:32;7.10;67.80
15615;DHT22;7907;51.368;6.730;2023-02-28T10:59:01;7.30;66.90
15615;DHT22;7907;51.368;6.730;2023-02-28T11:01:38;7.40;66.00
15615;DHT22;7907;51.368;6.730;2023-02-28T11:04:17;7.50;66.40
15615;DHT22;7907;51.368;6.730;2023-02-28T11:06:47;7.60;64.60
15615;DHT22;7907;51.368;6.730;2023-02-28T11:09:22;7.80;64.60
15615;DHT22;7907;51.368;6.730;2023-02-28T11:11:50;7.90;60.70
15615;DHT22;7907;51.368;6.730;2023-02-28T11:14:20;8.00;59.60
15615;DHT22;7907;51.368;6.730;2023-02-28T11:16:51;8.10;59.30
15615;DHT22;7907;51.368;6.730;2023-02-28T11:19:22;8.20;60.80
15615;DHT22;7907;51.368;6.730;2023-02-28T11:21:54;8.20;60.50
15615;DHT22;7907;51.368;6.730;2023-02-28T11:24:24;8.30;59.70
15615;DHT22;7907;51.368;6.730;2023-02-28T11:26:53;8.40;58.00
15615;DHT22;7907;51.368;6.730;2023-02-28T11:29:22;8.50;57.50
15615;DHT22;7907;51.368;6.730;2023-02-28T11:32:13;8.50;57.00
15615;DHT22;7907;51.368;6.730;2023-02-28T11:34:43;8.70;56.20
15615;DHT22;7907;51.368;6.730;2023-02-28T11:37:13;8.80;54.90
15615;DHT22;7907;51.368;6.730;2023-02-28T11:39:41;8.90;55.80
15615;DHT22;7907;51.368;6.730;2023-02-28T11:42:28;8.90;55.30
15615;DHT22;7907;51.368;6.730;2023-02-28T11:45:11;8.90;52.60
15615;DHT22;7907;51.368;6.730;2023-02-28T11:47:47;9.00;53.70
15615;DHT22;7907;51.368;6.730;2023-02-28T11:50:33;9.00;52.10
15615;DHT22;7907;51.368;6.730;2023-02-28T11:53:13;9.00;51.20
15615;DHT22;7907;51.368;6.730;2023-02-28T11:55:45;9.20;53.40
15615;DHT22;7907;51.368;6.730;2023-02-28T11:58:31;9.30;52.40
15615;DHT22;7907;51.368;6.730;2023-02-28T12:01:13;9.20;50.60
15615;DHT22;7907;51.368;6.730;2023-02-28T12:04:01;9.20;49.50
15615;DHT22;7907;51.368;6.730;2023-02-28T12:06:40;9.30;51.60
15615;DHT22;7907;51.368;6.730;2023-02-28T12:09:28;9.30;50.90
15615;DHT22;7907;51.368;6.730;2023-02-28T12:12:06;9.50;51.10
15615;DHT22;7907;51.368;6.730;2023-02-28T12:14:57;9.60;49.50
15615;DHT22;7907;51.368;6.730;2023-02-28T12:17:36;9.60;49.00
15615;DHT22;7907;51.368;6.730;2023-02-28T12:20:14;9.70;49.80
15615;DHT22;7907;51.368;6.730;2023-02-28T12:22:49;9.90;49.20
15615;DHT22;7907;51.368;6.730;2023-02-28T12:25:24;10.10;47.90
15615;DHT22;7907;51.368;6.730;2023-02-28T12:27:57;10.30;47.60
15615;DHT22;7907;51.368;6.730;2023-02-28T12:30:26;10.50;48.00
15615;DHT22;7907;51.368;6.730;2023-02-28T12:32:56;10.70;47.50
15615;DHT22;7907;51.368;6.730;2023-02-28T12:35:31;10.70;47.20
15615;DHT22;7907;51.368;6.730;2023-02-28T12:38:04;10.90;46.70
15615;DHT22;7907;51.368;6.730;2023-02-28T12:40:42;11.00;45.80
15615;DHT22;7907;51.368;6.730;2023-02-28T12:43:13;11.30;47.30
15615;DHT22;7907;51.368;6.730;2023-02-28T12:45:45;11.50;45.90
15615;DHT22;7907;51.368;6.730;2023-02-28T12:48:20;11.70;44.20
15615;DHT22;7907;51.368;6.730;2023-02-28T12:50:50;11.90;44.80
15615;DHT22;7907;51.368;6.730;2023-02-28T12:53:23;12.20;45.40
15615;DHT22;7907;51.368;6.730;2023-02-28T12:56:02;12.40;43.90
15615;DHT22;7907;51.368;6.730;2023-02-28T12:58:37;12.40;42.80
15615;DHT22;7907;51.368;6.730;2023-02-28T13:01:36;12.70;42.60
15615;DHT22;7907;51.368;6.730;2023-02-28T13:04:28;12.90;41.70
15615;DHT22;7907;51.368;6.730;2023-02-28T13:07:15;13.10;42.40
15615;DHT22;7907;51.368;6.730;2023-02-28T13:09:52;13.30;41.70
15615;DHT22;7907;51.368;6.730;2023-02-28T13:12:20;13.50;40.90
15615;DHT22;7907;51.368;6.730;2023-02-28T13:14:48;13.60;40.20
15615;DHT22;7907;51.368;6.730;2023-02-28T13:17:20;13.80;39.60
15615;DHT22;7907;51.368;6.730;2023-02-28T13:19:59;13.90;39.10
15615;DHT22;7907;51.368;6.730;2023-02-28T13:22:43;14.10;38.10
15615;DHT22;7907;51.368;6.730;2023-02-28T13:38:37;15.10;37.10
15615;DHT22;7907;51.368;6.730;2023-02-28T13:41:41;15.50;36.90
15615;DHT22;7907;51.368;6.730;2023-02-28T13:44:10;15.70;36.80
15615;DHT22;7907;51.368;6.730;2023-02-28T13:50:22;15.60;34.70
15615;DHT22;7907;51.368;6.730;2023-02-28T13:55:44;16.10;35.60
15615;DHT22;7907;51.368;6.730;2023-02-28T13:58:32;16.30;34.80
15615;DHT22;7907;51.368;6.730;2023-02-28T14:01:25;16.50;35.00
15615;DHT22;7907;51.368;6.730;2023-02-28T14:07:02;17.10;34.50
15615;DHT22;7907;51.368;6.730;2023-02-28T14:09:32;17.30;34.10
15615;DHT22;7907;51.368;6.730;2023-02-28T14:15:38;17.70;33.20
15615;DHT22;7907;51.368;6.730;2023-02-28T14:18:21;17.70;32.00
15615;DHT22;7907;51.368;6.730;2023-02-28T14:20:53;17.60;32.00
15615;DHT22;7907;51.368;6.730;2023-02-28T14:23:41;17.60;32.40
15615;DHT22;7907;51.368;6.730;2023-02-28T14:26:19;17.40;31.70
15615;DHT22;7907;51.368;6.730;2023-02-28T14:29:09;17.30;31.80
15615;DHT22;7907;51.368;6.730;2023-02-28T14:31:46;17.30;32.90
15615;DHT22;7907;51.368;6.730;2023-02-28T14:34:30;17.40;31.80
15615;DHT22;7907;51.368;6.730;2023-02-28T14:37:02;17.60;31.60
15615;DHT22;7907;51.368;6.730;2023-02-28T14:39:30;17.60;31.60
15615;DHT22;7907;51.368;6.730;2023-02-28T14:42:00;17.50;31.90
15615;DHT22;7907;51.368;6.730;2023-02-28T14:44:31;17.60;32.10
15615;DHT22;7907;51.368;6.730;2023-02-28T14:47:02;17.90;32.10
15615;DHT22;7907;51.368;6.730;2023-02-28T14:49:35;18.20;32.50
15615;DHT22;7907;51.368;6.730;2023-02-28T14:52:07;18.50;31.70
15615;DHT22;7907;51.368;6.730;2023-02-28T14:54:35;18.80;31.30
15615;DHT22;7907;51.368;6.730;2023-02-28T14:57:03;19.00;31.90
15615;DHT22;7907;51.368;6.730;2023-02-28T14:59:32;19.20;31.80
15615;DHT22;7907;51.368;6.730;2023-02-28T15:02:22;19.40;32.10
15615;DHT22;7907;51.368;6.730;2023-02-28T15:04:55;19.40;31.00
15615;DHT22;7907;51.368;6.730;2023-02-28T15:07:23;19.50;30.40
15615;DHT22;7907;51.368;6.730;2023-02-28T15:10:15;19.40;30.60
15615;DHT22;7907;51.368;6.730;2023-02-28T15:12:50;19.30;30.60
15615;DHT22;7907;51.368;6.730;2023-02-28T15:15:19;19.30;31.30
15615;DHT22;7907;51.368;6.730;2023-02-28T15:17:51;19.40;30.90
15615;DHT22;7907;51.368;6.730;2023-02-28T15:20:22;19.50;31.20
15615;DHT22;7907;51.368;6.730;2023-02-28T15:22:53;19.60;30.70
15615;DHT22;7907;51.368;6.730;2023-02-28T15:25:22;19.30;30.20
15615;DHT22;7907;51.368;6.730;2023-02-28T15:27:52;19.20;30.70
15615;DHT22;7907;51.368;6.730;2023-02-28T15:30:21;19.20;30.40
15615;DHT22;7907;51.368;6.730;2023-02-28T15:33:07;19.10;30.30
15615;DHT22;7907;51.368;6.730;2023-02-28T15:35:37;19.20;30.30
15615;DHT22;7907;51.368;6.730;2023-02-28T15:38:16;19.00;30.10
15615;DHT22;7907;51.368;6.730;2023-02-28T15:40:50;19.10;30.50
15615;DHT22;7907;51.368;6.730;2023-02-28T15:43:25;19.20;30.30
15615;DHT22;7907;51.368;6.730;2023-02-28T15:45:58;19.20;30.60
15615;DHT22;7907;51.368;6.730;2023-02-28T15:48:30;19.20;30.50
15615;DHT22;7907;51.368;6.730;2023-02-28T15:51:04;19.10;30.90
15615;DHT22;7907;51.368;6.730;2023-02-28T15:53:36;19.10;30.90
15615;DHT22;7907;51.368;6.730;2023-02-28T15:56:19;19.10;31.20
15615;DHT22;7907;51.368;6.730;2023-02-28T15:58:47;19.10;31.00
15615;DHT22;7907;51.368;6.730;2023-02-28T16:01:21;18.60;30.80
15615;DHT22;7907;51.368;6.730;2023-02-28T16:03:54;18.00;31.30
15615;DHT22;7907;51.368;6.730;2023-02-28T16:06:37;17.30;32.00
15615;DHT22;7907;51.368;6.730;2023-02-28T16:09:07;16.60;32.70
15615;DHT22;7907;51.368;6.730;2023-02-28T16:11:38;15.90;33.30
15615;DHT22;7907;51.368;6.730;2023-02-28T16:14:08;15.10;33.60
15615;DHT22;7907;51.368;6.730;2023-02-28T16:16:43;14.30;34.40
15615;DHT22;7907;51.368;6.730;2023-02-28T16:19:12;13.60;35.20
15615;DHT22;7907;51.368;6.730;2023-02-28T16:21:40;13.20;36.20
15615;DHT22;7907;51.368;6.730;2023-02-28T16:24:12;12.80;36.90
15615;DHT22;7907;51.368;6.730;2023-02-28T16:26:40;12.40;37.70
15615;DHT22;7907;51.368;6.730;2023-02-28T16:29:13;12.10;38.60
15615;DHT22;7907;51.368;6.730;2023-02-28T16:31:45;11.70;38.80
15615;DHT22;7907;51.368;6.730;2023-02-28T16:34:15;11.30;38.80
15615;DHT22;7907;51.368;6.730;2023-02-28T16:36:42;11.00;39.60
15615;DHT22;7907;51.368;6.730;2023-02-28T16:39:13;10.70;40.30
15615;DHT22;7907;51.368;6.730;2023-02-28T16:41:45;10.50;41.60
15615;DHT22;7907;51.368;6.730;2023-02-28T16:44:21;10.10;42.20
15615;DHT22;7907;51.368;6.730;2023-02-28T16:46:52;9.80;44.40
15615;DHT22;7907;51.368;6.730;2023-02-28T16:49:22;9.60;45.20
15615;DHT22;7907;51.368;6.730;2023-02-28T16:51:51;9.40;46.00
15615;DHT22;7907;51.368;6.730;2023-02-28T16:54:20;9.10;46.60
15615;DHT22;7907;51.368;6.730;2023-02-28T16:56:50;8.90;47.10
15615;DHT22;7907;51.368;6.730;2023-02-28T16:59:21;8.70;47.90
15615;DHT22;7907;51.368;6.730;2023-02-28T17:01:53;8.50;48.40
15615;DHT22;7907;51.368;6.730;2023-02-28T17:04:23;8.30;49.00
15615;DHT22;7907;51.368;6.730;2023-02-28T17:06:53;8.20;49.60
15615;DHT22;7907;51.368;6.730;2023-02-28T17:09:24;8.00;49.70
15615;DHT22;7907;51.368;6.730;2023-02-28T17:11:53;7.90;50.30
15615;DHT22;7907;51.368;6.730;2023-02-28T17:14:22;7.70;50.50
15615;DHT22;7907;51.368;6.730;2023-02-28T17:16:49;7.60;50.90